Time;durP1;ratioP1;P1;durP2;ratioP2;P2;SDS_P1;SDS_P2;PMS_P1;PMS_P2;Temp;Humidity;BMP_temperature;BMP_pressure;BME280_temperature;BME280_humidity;BME280_pressure;Samples;Min_cycle;Max_cycle;Signal;HPM_P1;HPM_P2
2023/01/26 00:00:08;;;;;;;40.40;23.52;;;;;;;;;;5041588;28;20071;-72
2023/01/26 00:02:34;;;;;;;44.17;25.63;;;;;;;;;;5042624;28;20108;-73
2023/01/26 00:05:00;;;;;;;40.58;24.25;;;;;;;;;;5048700;28;20107;-73
2023/01/26 00:07:28;;;;;;;45.17;27.30;;;;;;;;;;5028705;28;20534;-73
2023/01/26 00:09:54;;;;;;;45.95;26.40;;;;;;;;;;5048046;28;20037;-73
2023/01/26 00:12:20;;;;;;;40.50;23.60;;;;;;;;;;5047743;28;20044;-73
2023/01/26 00:14:48;;;;;;;37.72;23.90;;;;;;;;;;5048368;28;20585;-74
2023/01/26 00:17:15;;;;;;;41.63;26.60;;;;;;;;;;5044234;28;20043;-73
2023/01/26 00:19:41;;;;;;;41.83;25.88;;;;;;;;;;5041088;28;20056;-72
2023/01/26 00:22:07;;;;;;;36.03;19.80;;;;;;;;;;5044710;28;20875;-73
2023/01/26 00:24:33;;;;;;;36.80;23.25;;;;;;;;;;5045531;28;20063;-73
2023/01/26 00:26:59;;;;;;;30.90;18.90;;;;;;;;;;5044328;28;20037;-72
2023/01/26 00:29:25;;;;;;;37.65;23.80;;;;;;;;;;5045772;28;20037;-72
2023/01/26 00:31:51;;;;;;;40.88;24.65;;;;;;;;;;5048801;28;20124;-73
2023/01/26 00:34:17;;;;;;;44.25;24.27;;;;;;;;;;5047483;28;20804;-73
2023/01/26 00:36:43;;;;;;;41.70;25.73;;;;;;;;;;5047446;28;20040;-73
2023/01/26 00:39:09;;;;;;;42.47;26.27;;;;;;;;;;5045231;28;20543;-73
2023/01/26 00:44:20;;;;;;;42.22;26.73;;;;;;;;;;5046749;28;20603;-73
2023/01/26 00:46:46;;;;;;;40.28;23.10;;;;;;;;;;5045980;28;20036;-73
2023/01/26 00:49:12;;;;;;;43.28;25.73;;;;;;;;;;5038995;28;20033;-73
2023/01/26 00:51:38;;;;;;;42.22;24.13;;;;;;;;;;5041771;28;20061;-73
2023/01/26 00:54:04;;;;;;;41.50;24.65;;;;;;;;;;5046383;28;20033;-73
2023/01/26 00:56:30;;;;;;;39.33;23.17;;;;;;;;;;5047959;28;20900;-73
2023/01/26 00:58:56;;;;;;;46.05;25.67;;;;;;;;;;5046062;28;20041;-74
2023/01/26 01:01:22;;;;;;;39.30;22.63;;;;;;;;;;5048353;28;20029;-73
2023/01/26 01:03:49;;;;;;;39.58;22.83;;;;;;;;;;5042848;28;20049;-73
2023/01/26 01:06:15;;;;;;;40.33;23.88;;;;;;;;;;5043697;28;20485;-73
2023/01/26 01:08:41;;;;;;;42.85;24.15;;;;;;;;;;5046613;28;20625;-73
2023/01/26 01:11:08;;;;;;;39.15;24.50;;;;;;;;;;5044203;28;20033;-74
2023/01/26 01:13:34;;;;;;;43.75;25.90;;;;;;;;;;5046587;28;20032;-73
2023/01/26 01:16:04;;;;;;;39.97;24.90;;;;;;;;;;5046077;28;20044;-72
2023/01/26 01:18:30;;;;;;;40.08;24.70;;;;;;;;;;5039553;28;20049;-73
2023/01/26 01:20:56;;;;;;;37.33;22.08;;;;;;;;;;5046441;28;20028;-73
2023/01/26 01:23:22;;;;;;;39.60;22.98;;;;;;;;;;5048101;28;20037;-74
2023/01/26 01:25:55;;;;;;;35.75;21.13;;;;;;;;;;5045311;28;20040;-73
2023/01/26 01:28:21;;;;;;;39.53;22.65;;;;;;;;;;5035303;28;20036;-73
2023/01/26 01:30:47;;;;;;;38.40;23.35;;;;;;;;;;5046223;28;20485;-73
2023/01/26 01:33:14;;;;;;;36.88;22.33;;;;;;;;;;5043138;28;20033;-73
2023/01/26 01:35:40;;;;;;;39.08;22.45;;;;;;;;;;5042340;28;20078;-73
2023/01/26 01:38:05;;;;;;;35.95;20.73;;;;;;;;;;5048021;28;20032;-73
2023/01/26 01:40:31;;;;;;;42.03;25.23;;;;;;;;;;5043095;28;20080;-73
2023/01/26 01:42:57;;;;;;;37.28;22.60;;;;;;;;;;5046417;28;20844;-72
2023/01/26 01:45:23;;;;;;;40.45;24.23;;;;;;;;;;5044925;28;20039;-73
2023/01/26 01:47:50;;;;;;;40.38;24.48;;;;;;;;;;5046654;28;20408;-73
2023/01/26 01:50:17;;;;;;;39.97;22.40;;;;;;;;;;5045891;28;20036;-73
2023/01/26 01:52:43;;;;;;;41.22;22.48;;;;;;;;;;5047669;28;20549;-72
2023/01/26 01:55:12;;;;;;;40.53;22.52;;;;;;;;;;5044984;28;20113;-73
2023/01/26 01:57:44;;;;;;;39.72;23.42;;;;;;;;;;5046890;28;20075;-73
2023/01/26 02:00:12;;;;;;;40.10;24.55;;;;;;;;;;5046820;28;20032;-72
2023/01/26 02:02:38;;;;;;;42.72;24.52;;;;;;;;;;5045506;28;20782;-73
2023/01/26 02:05:10;;;;;;;42.53;25.67;;;;;;;;;;5046954;28;20036;-73
2023/01/26 02:07:37;;;;;;;43.72;24.45;;;;;;;;;;5042514;28;20041;-73
2023/01/26 02:10:18;;;;;;;42.53;24.83;;;;;;;;;;5046984;28;20033;-73
2023/01/26 02:12:45;;;;;;;42.78;25.80;;;;;;;;;;5043599;28;20040;-73
2023/01/26 02:15:11;;;;;;;42.40;26.17;;;;;;;;;;5045789;28;20145;-73
2023/01/26 02:17:38;;;;;;;45.28;26.65;;;;;;;;;;5043640;28;20138;-72
2023/01/26 02:20:10;;;;;;;38.95;23.13;;;;;;;;;;5047048;28;20025;-73
2023/01/26 02:22:49;;;;;;;42.90;25.70;;;;;;;;;;5042905;28;20029;-73
2023/01/26 02:25:24;;;;;;;39.88;23.35;;;;;;;;;;5042038;28;20079;-73
2023/01/26 02:27:50;;;;;;;42.95;25.70;;;;;;;;;;5045731;28;20071;-73
2023/01/26 02:30:17;;;;;;;40.90;23.95;;;;;;;;;;5046466;28;20112;-73
2023/01/26 02:32:43;;;;;;;40.85;23.73;;;;;;;;;;5045568;28;20040;-72
2023/01/26 02:35:09;;;;;;;41.83;24.88;;;;;;;;;;5028844;28;20033;-73
2023/01/26 02:37:35;;;;;;;40.83;24.85;;;;;;;;;;5042641;28;20116;-72
2023/01/26 02:40:04;;;;;;;42.45;23.88;;;;;;;;;;5046731;28;20104;-73
2023/01/26 02:42:40;;;;;;;42.22;23.67;;;;;;;;;;5048114;28;20033;-73
2023/01/26 02:45:08;;;;;;;36.72;21.27;;;;;;;;;;5049241;28;20039;-73
2023/01/26 02:47:34;;;;;;;40.53;24.33;;;;;;;;;;5048930;28;20039;-73
2023/01/26 02:50:00;;;;;;;36.15;23.15;;;;;;;;;;5050851;28;20068;-72
2023/01/26 02:52:27;;;;;;;35.10;21.80;;;;;;;;;;5030716;28;20029;-73
2023/01/26 02:57:39;;;;;;;39.28;24.05;;;;;;;;;;5041144;28;20140;-73
2023/01/26 03:00:07;;;;;;;30.40;16.95;;;;;;;;;;5045898;28;20079;-73
2023/01/26 03:02:34;;;;;;;29.33;17.95;;;;;;;;;;5046294;28;20052;-73
2023/01/26 03:05:00;;;;;;;29.90;18.63;;;;;;;;;;5050996;28;20040;-73
2023/01/26 03:07:26;;;;;;;32.85;19.10;;;;;;;;;;5050576;28;20032;-73
2023/01/26 03:09:52;;;;;;;29.98;17.77;;;;;;;;;;5050295;28;20726;-72
2023/01/26 03:12:18;;;;;;;29.17;16.23;;;;;;;;;;5046918;28;20553;-73
2023/01/26 03:14:44;;;;;;;29.98;17.23;;;;;;;;;;5046097;28;20057;-73
2023/01/26 03:17:10;;;;;;;26.05;16.13;;;;;;;;;;5028842;28;20044;-73
2023/01/26 03:27:50;;;;;;;27.23;16.50;;;;;;;;;;5040095;28;20036;-72
2023/01/26 03:30:17;;;;;;;30.45;16.88;;;;;;;;;;5044846;28;20037;-73
2023/01/26 03:32:44;;;;;;;33.92;19.67;;;;;;;;;;5040923;28;20021;-73
2023/01/26 03:35:21;;;;;;;30.17;16.52;;;;;;;;;;5043401;28;20379;-72
2023/01/26 03:37:53;;;;;;;30.85;17.58;;;;;;;;;;5042092;28;20417;-73
2023/01/26 03:56:53;;;;;;;29.63;17.95;;;;;;;;;;5045012;28;20600;-73
2023/01/26 03:59:36;;;;;;;29.25;16.98;;;;;;;;;;5044461;28;20065;-72
2023/01/26 04:10:16;;;;;;;26.65;15.57;;;;;;;;;;5043682;28;20084;-73
2023/01/26 04:12:42;;;;;;;28.20;16.50;;;;;;;;;;5042933;28;20052;-72
2023/01/26 04:23:22;;;;;;;40.35;22.40;;;;;;;;;;5040155;28;20056;-72
2023/01/26 04:25:48;;;;;;;40.78;22.77;;;;;;;;;;5045917;28;20033;-73
2023/01/26 04:28:14;;;;;;;40.75;23.02;;;;;;;;;;5044817;28;20515;-73
2023/01/26 04:30:41;;;;;;;44.33;23.83;;;;;;;;;;5045345;28;20682;-73
2023/01/26 04:33:06;;;;;;;43.53;25.45;;;;;;;;;;5028598;28;20029;-73
2023/01/26 04:35:33;;;;;;;54.97;32.60;;;;;;;;;;5044167;28;20036;-73
2023/01/26 04:37:59;;;;;;;51.13;27.98;;;;;;;;;;5043210;28;20038;-73
2023/01/26 04:40:25;;;;;;;40.15;23.65;;;;;;;;;;5044928;28;20037;-73
2023/01/26 04:42:51;;;;;;;40.92;24.48;;;;;;;;;;5045523;28;20032;-73
2023/01/26 04:45:17;;;;;;;45.13;25.25;;;;;;;;;;5021712;28;20037;-73
2023/01/26 04:47:43;;;;;;;44.55;24.90;;;;;;;;;;5047762;28;20124;-72
2023/01/26 04:50:09;;;;;;;38.75;22.42;;;;;;;;;;5041435;28;20049;-72
2023/01/26 04:52:35;;;;;;;39.40;22.25;;;;;;;;;;5040887;28;20116;-72
2023/01/26 04:55:01;;;;;;;40.70;22.67;;;;;;;;;;5042872;28;20111;-73
2023/01/26 04:57:27;;;;;;;40.95;23.60;;;;;;;;;;5041957;28;20630;-72
2023/01/26 04:59:53;;;;;;;38.92;21.92;;;;;;;;;;5040870;28;20060;-73
2023/01/26 05:02:19;;;;;;;40.53;25.10;;;;;;;;;;5045591;28;20545;-73
2023/01/26 05:04:45;;;;;;;41.65;23.75;;;;;;;;;;5046071;28;20032;-73
2023/01/26 05:07:11;;;;;;;46.40;26.38;;;;;;;;;;5043514;28;20033;-73
2023/01/26 05:09:37;;;;;;;43.05;25.40;;;;;;;;;;5046215;28;20029;-73
2023/01/26 05:14:48;;;;;;;39.97;22.90;;;;;;;;;;5039397;28;20776;-73
2023/01/26 05:17:14;;;;;;;40.00;22.48;;;;;;;;;;5041550;28;20041;-73
2023/01/26 05:19:40;;;;;;;42.65;22.95;;;;;;;;;;5042791;28;20114;-72
2023/01/26 05:22:06;;;;;;;43.63;24.38;;;;;;;;;;5043195;28;20043;-72
2023/01/26 05:24:32;;;;;;;40.95;25.00;;;;;;;;;;5043638;28;20029;-72
2023/01/26 05:29:43;;;;;;;45.70;25.95;;;;;;;;;;5040464;28;20420;-73
2023/01/26 05:32:09;;;;;;;47.33;27.50;;;;;;;;;;5043841;28;20041;-73
2023/01/26 05:34:35;;;;;;;44.95;25.80;;;;;;;;;;5044713;28;20041;-73
2023/01/26 05:37:01;;;;;;;41.15;23.35;;;;;;;;;;5040952;28;20040;-72
2023/01/26 05:39:27;;;;;;;44.55;25.30;;;;;;;;;;5032643;28;20044;-73
2023/01/26 05:41:55;;;;;;;44.58;26.27;;;;;;;;;;5041528;28;20036;-73
2023/01/26 05:44:21;;;;;;;42.25;23.35;;;;;;;;;;5040913;28;20159;-72
2023/01/26 05:46:47;;;;;;;43.33;24.08;;;;;;;;;;5037787;28;20037;-73
2023/01/26 05:49:13;;;;;;;38.60;21.45;;;;;;;;;;5039584;28;20059;-73
2023/01/26 05:51:39;;;;;;;43.30;24.48;;;;;;;;;;5044911;28;20025;-73
2023/01/26 05:54:05;;;;;;;46.00;26.13;;;;;;;;;;5038721;28;20514;-73
2023/01/26 05:56:31;;;;;;;47.45;25.48;;;;;;;;;;5041082;28;20116;-73
2023/01/26 05:58:57;;;;;;;41.60;24.50;;;;;;;;;;5037972;28;20709;-73
2023/01/26 06:01:23;;;;;;;40.78;24.23;;;;;;;;;;5043733;28;20029;-72
2023/01/26 06:03:49;;;;;;;47.15;25.08;;;;;;;;;;5046025;28;20631;-73
2023/01/26 06:06:15;;;;;;;41.30;24.55;;;;;;;;;;5039853;28;20024;-73
2023/01/26 06:08:41;;;;;;;45.35;22.15;;;;;;;;;;5043428;28;20037;-72
2023/01/26 06:11:07;;;;;;;43.45;21.98;;;;;;;;;;5038329;28;20021;-72
2023/01/26 06:13:33;;;;;;;43.20;25.45;;;;;;;;;;5041397;28;20038;-72
2023/01/26 06:16:02;;;;;;;41.63;25.23;;;;;;;;;;5042206;28;20087;-72
2023/01/26 06:18:28;;;;;;;43.60;25.38;;;;;;;;;;5044977;28;20387;-73
2023/01/26 06:20:57;;;;;;;45.58;25.77;;;;;;;;;;5038196;28;20103;-73
2023/01/26 06:23:23;;;;;;;47.83;26.73;;;;;;;;;;5025387;28;20152;-72
2023/01/26 06:25:50;;;;;;;44.10;25.48;;;;;;;;;;5039767;28;20809;-72
2023/01/26 06:28:19;;;;;;;42.42;25.10;;;;;;;;;;5043645;28;20079;-73
2023/01/26 06:30:45;;;;;;;42.90;23.65;;;;;;;;;;5041752;28;20025;-72
2023/01/26 06:33:11;;;;;;;43.33;23.88;;;;;;;;;;5041059;28;20036;-74
2023/01/26 06:35:37;;;;;;;42.38;25.75;;;;;;;;;;5046783;28;20071;-72
2023/01/26 06:38:03;;;;;;;45.70;24.80;;;;;;;;;;5040396;28;20029;-73
2023/01/26 06:40:29;;;;;;;45.35;24.55;;;;;;;;;;5042979;28;20053;-72
2023/01/26 06:42:55;;;;;;;43.60;23.52;;;;;;;;;;5043741;28;20029;-73
2023/01/26 06:45:21;;;;;;;47.05;25.15;;;;;;;;;;5046902;28;20386;-72
2023/01/26 06:47:47;;;;;;;44.65;24.38;;;;;;;;;;5044377;28;20073;-73
2023/01/26 06:50:15;;;;;;;44.58;24.95;;;;;;;;;;5045016;28;20083;-73
2023/01/26 06:52:43;;;;;;;42.30;22.77;;;;;;;;;;5046344;28;20030;-73
2023/01/26 06:55:16;;;;;;;43.65;24.73;;;;;;;;;;5043777;28;20037;-73
2023/01/26 06:57:42;;;;;;;41.33;24.25;;;;;;;;;;5043748;28;20381;-72
2023/01/26 07:00:09;;;;;;;46.80;26.55;;;;;;;;;;5042167;28;20449;-73
2023/01/26 07:02:35;;;;;;;44.47;22.70;;;;;;;;;;5043277;28;20033;-72
2023/01/26 07:05:01;;;;;;;45.25;25.38;;;;;;;;;;5042718;28;20044;-73
2023/01/26 07:07:28;;;;;;;44.85;23.55;;;;;;;;;;5044157;28;20037;-73
2023/01/26 07:09:54;;;;;;;49.13;27.15;;;;;;;;;;5042371;28;20128;-73
2023/01/26 07:12:20;;;;;;;42.40;23.00;;;;;;;;;;5025053;28;20143;-72
2023/01/26 07:14:46;;;;;;;41.72;21.95;;;;;;;;;;5025356;28;20145;-73
2023/01/26 07:17:12;;;;;;;45.75;24.00;;;;;;;;;;5043377;28;20037;-73
2023/01/26 07:19:38;;;;;;;42.55;23.08;;;;;;;;;;5042822;28;20036;-73
2023/01/26 07:22:04;;;;;;;52.70;25.40;;;;;;;;;;5042526;28;20035;-72
2023/01/26 07:24:30;;;;;;;46.45;25.75;;;;;;;;;;5040943;28;20129;-73
2023/01/26 07:26:56;;;;;;;49.53;24.65;;;;;;;;;;5044894;28;20048;-73
2023/01/26 07:29:22;;;;;;;44.20;23.77;;;;;;;;;;5046996;28;20045;-73
2023/01/26 07:31:48;;;;;;;42.72;22.73;;;;;;;;;;5051879;28;20056;-73
2023/01/26 07:34:14;;;;;;;44.70;25.08;;;;;;;;;;5048609;28;20389;-72
2023/01/26 07:36:40;;;;;;;45.38;24.40;;;;;;;;;;5046535;28;20037;-73
2023/01/26 07:39:06;;;;;;;41.55;23.88;;;;;;;;;;5043288;28;20032;-72
2023/01/26 07:41:32;;;;;;;39.47;22.55;;;;;;;;;;5047301;28;20064;-73
2023/01/26 07:43:58;;;;;;;41.33;23.48;;;;;;;;;;5043152;28;20533;-72
2023/01/26 07:46:24;;;;;;;40.22;23.58;;;;;;;;;;5049688;28;20032;-74
2023/01/26 07:48:50;;;;;;;38.92;22.10;;;;;;;;;;5044591;28;20025;-73
2023/01/26 07:51:16;;;;;;;42.47;23.35;;;;;;;;;;5028505;28;20048;-73
2023/01/26 07:53:42;;;;;;;44.55;22.23;;;;;;;;;;5043340;28;20116;-73
2023/01/26 07:56:13;;;;;;;44.70;24.27;;;;;;;;;;5048128;28;20044;-73
2023/01/26 07:58:39;;;;;;;45.47;24.30;;;;;;;;;;5041442;28;20473;-73
2023/01/26 08:01:10;;;;;;;41.28;22.95;;;;;;;;;;5030340;28;20039;-73
2023/01/26 08:03:36;;;;;;;41.58;22.75;;;;;;;;;;5047210;28;20041;-72
2023/01/26 08:06:02;;;;;;;42.65;21.48;;;;;;;;;;5047977;28;20033;-73
2023/01/26 08:08:28;;;;;;;47.25;24.10;;;;;;;;;;5041588;28;20037;-73
2023/01/26 08:10:57;;;;;;;43.92;23.80;;;;;;;;;;5047129;28;20036;-72
2023/01/26 08:13:23;;;;;;;38.97;21.60;;;;;;;;;;5041755;28;20590;-73
2023/01/26 08:15:49;;;;;;;40.72;22.02;;;;;;;;;;5028550;28;20540;-73
2023/01/26 08:18:15;;;;;;;44.97;22.23;;;;;;;;;;5045015;28;20041;-73
2023/01/26 08:20:41;;;;;;;36.28;19.75;;;;;;;;;;5040361;28;20071;-73
2023/01/26 08:23:07;;;;;;;40.75;21.13;;;;;;;;;;5048671;28;20074;-73
2023/01/26 08:25:33;;;;;;;45.40;23.65;;;;;;;;;;5044048;28;20033;-73
2023/01/26 08:27:59;;;;;;;43.55;23.48;;;;;;;;;;5045706;28;20057;-73
2023/01/26 08:30:25;;;;;;;40.90;22.63;;;;;;;;;;5043682;28;20037;-72
2023/01/26 08:32:51;;;;;;;38.10;22.65;;;;;;;;;;5047153;28;20033;-73
2023/01/26 08:35:17;;;;;;;40.80;22.98;;;;;;;;;;5042905;28;20137;-73
2023/01/26 08:37:43;;;;;;;42.13;21.65;;;;;;;;;;5045961;28;20032;-72
2023/01/26 08:40:09;;;;;;;42.03;23.45;;;;;;;;;;5023781;28;20037;-73
2023/01/26 08:42:35;;;;;;;39.05;22.95;;;;;;;;;;5044656;28;20568;-73
2023/01/26 08:45:01;;;;;;;38.30;20.52;;;;;;;;;;5044236;28;20059;-73
2023/01/26 08:47:27;;;;;;;39.33;21.67;;;;;;;;;;5045680;28;20057;-73
2023/01/26 08:49:53;;;;;;;35.17;19.65;;;;;;;;;;5040891;28;20079;-73
2023/01/26 08:52:20;;;;;;;36.92;21.52;;;;;;;;;;5045695;28;20031;-73
2023/01/26 08:54:46;;;;;;;39.55;19.67;;;;;;;;;;5047974;28;20355;-73
2023/01/26 08:57:12;;;;;;;35.78;20.20;;;;;;;;;;5045132;28;20108;-73
2023/01/26 08:59:38;;;;;;;39.13;22.08;;;;;;;;;;5043513;28;20132;-73
2023/01/26 09:02:04;;;;;;;34.78;21.02;;;;;;;;;;5043929;28;20029;-73
2023/01/26 09:04:30;;;;;;;37.25;21.52;;;;;;;;;;5045406;28;20037;-72
2023/01/26 09:06:56;;;;;;;39.03;20.73;;;;;;;;;;5042546;28;20025;-73
2023/01/26 09:09:22;;;;;;;38.35;21.35;;;;;;;;;;5046228;28;20060;-73
2023/01/26 09:11:48;;;;;;;45.88;22.45;;;;;;;;;;5045310;28;20485;-73
2023/01/26 09:14:14;;;;;;;44.42;23.17;;;;;;;;;;5047162;28;20506;-73
2023/01/26 09:16:40;;;;;;;37.85;20.00;;;;;;;;;;5045174;28;20040;-73
2023/01/26 09:19:06;;;;;;;38.30;19.77;;;;;;;;;;5041089;28;20037;-73
2023/01/26 09:21:32;;;;;;;36.08;18.38;;;;;;;;;;5045607;28;20446;-73
2023/01/26 09:23:58;;;;;;;42.45;21.92;;;;;;;;;;5044326;28;20071;-72
2023/01/26 09:26:24;;;;;;;34.20;18.83;;;;;;;;;;5041439;28;20060;-73
2023/01/26 09:28:53;;;;;;;37.15;19.52;;;;;;;;;;5027007;28;20059;-73
2023/01/26 09:31:19;;;;;;;31.35;18.92;;;;;;;;;;5024497;28;20029;-72
2023/01/26 09:33:45;;;;;;;43.58;21.27;;;;;;;;;;5045735;28;20826;-73
2023/01/26 09:36:12;;;;;;;33.80;18.48;;;;;;;;;;5039000;28;20024;-73
2023/01/26 09:38:38;;;;;;;36.42;20.40;;;;;;;;;;5043494;28;20037;-73
2023/01/26 09:41:07;;;;;;;39.33;20.58;;;;;;;;;;5043097;28;20075;-73
2023/01/26 09:43:43;;;;;;;40.38;21.35;;;;;;;;;;5044195;28;20068;-73
2023/01/26 09:46:27;;;;;;;34.55;19.63;;;;;;;;;;5045409;28;20202;-73
2023/01/26 09:49:11;;;;;;;41.08;20.98;;;;;;;;;;5048846;28;20040;-73
2023/01/26 09:51:39;;;;;;;36.92;20.40;;;;;;;;;;5045559;28;20017;-73
2023/01/26 09:54:14;;;;;;;40.15;20.92;;;;;;;;;;5044376;28;20036;-73
2023/01/26 09:56:40;;;;;;;41.30;20.20;;;;;;;;;;5042865;28;20434;-73
2023/01/26 09:59:12;;;;;;;35.25;19.45;;;;;;;;;;5042203;28;20043;-73
2023/01/26 10:01:41;;;;;;;38.33;21.67;;;;;;;;;;5023366;28;20032;-72
2023/01/26 10:04:14;;;;;;;32.95;18.38;;;;;;;;;;5044028;28;20049;-73
2023/01/26 10:06:40;;;;;;;35.08;18.23;;;;;;;;;;5044419;28;20033;-73
2023/01/26 10:09:21;;;;;;;36.45;20.23;;;;;;;;;;5043040;28;20033;-72
2023/01/26 10:11:50;;;;;;;39.83;20.42;;;;;;;;;;5044730;28;20032;-72
2023/01/26 10:14:21;;;;;;;33.78;18.17;;;;;;;;;;5041840;28;20068;-73
2023/01/26 10:16:49;;;;;;;33.80;19.10;;;;;;;;;;5039856;28;20033;-73
2023/01/26 10:19:15;;;;;;;35.35;19.73;;;;;;;;;;5038338;28;20116;-73
2023/01/26 10:21:43;;;;;;;37.38;19.95;;;;;;;;;;5041371;28;20112;-73
2023/01/26 10:24:10;;;;;;;36.55;19.63;;;;;;;;;;5043016;28;20037;-73
2023/01/26 10:26:36;;;;;;;58.13;29.60;;;;;;;;;;5044331;28;20029;-73
2023/01/26 10:29:02;;;;;;;56.20;27.77;;;;;;;;;;5044096;28;20088;-73
2023/01/26 10:31:33;;;;;;;39.88;21.23;;;;;;;;;;5019965;28;20033;-73
2023/01/26 10:34:02;;;;;;;33.13;18.00;;;;;;;;;;5043211;28;20493;-72
2023/01/26 10:36:31;;;;;;;37.58;19.92;;;;;;;;;;5044220;28;20104;-72
2023/01/26 10:39:07;;;;;;;38.22;21.52;;;;;;;;;;5041447;28;20048;-73
2023/01/26 10:41:33;;;;;;;32.42;17.90;;;;;;;;;;5042591;28;20028;-72
2023/01/26 10:44:04;;;;;;;34.42;17.73;;;;;;;;;;5041685;28;20049;-73
2023/01/26 10:46:34;;;;;;;32.65;16.52;;;;;;;;;;5045614;28;20029;-72
2023/01/26 10:49:10;;;;;;;33.25;18.98;;;;;;;;;;5045118;28;20033;-73
2023/01/26 10:51:40;;;;;;;32.92;16.75;;;;;;;;;;5045076;28;20690;-72
2023/01/26 10:54:13;;;;;;;32.30;17.92;;;;;;;;;;5044931;28;20029;-73
2023/01/26 10:56:50;;;;;;;32.50;18.17;;;;;;;;;;5043783;28;20067;-73
2023/01/26 10:59:38;;;;;;;34.42;17.60;;;;;;;;;;5041999;28;20033;-72
2023/01/26 11:02:18;;;;;;;38.78;18.25;;;;;;;;;;5045281;28;20027;-72
2023/01/26 11:05:03;;;;;;;37.28;19.33;;;;;;;;;;5047619;28;20115;-73
2023/01/26 11:07:38;;;;;;;43.75;18.60;;;;;;;;;;5044947;28;20047;-73
2023/01/26 11:10:25;;;;;;;42.42;20.30;;;;;;;;;;5045567;28;20070;-73
2023/01/26 11:12:52;;;;;;;43.78;21.23;;;;;;;;;;5046054;28;20075;-73
2023/01/26 11:15:23;;;;;;;39.72;20.95;;;;;;;;;;5022347;28;20056;-73
2023/01/26 11:17:52;;;;;;;43.28;23.35;;;;;;;;;;5049675;28;20466;-72
2023/01/26 11:20:30;;;;;;;44.47;22.38;;;;;;;;;;5043079;28;20032;-72
2023/01/26 11:23:18;;;;;;;40.80;23.05;;;;;;;;;;5046812;28;20048;-73
2023/01/26 11:25:50;;;;;;;38.20;19.60;;;;;;;;;;5043175;28;20037;-72
2023/01/26 11:28:29;;;;;;;35.50;19.70;;;;;;;;;;5045757;28;20029;-73
2023/01/26 11:31:03;;;;;;;37.25;19.63;;;;;;;;;;5043585;28;20392;-73
2023/01/26 11:33:29;;;;;;;40.13;21.38;;;;;;;;;;5051874;28;20024;-72
2023/01/26 11:35:59;;;;;;;37.63;20.15;;;;;;;;;;5046140;28;20094;-73
2023/01/26 11:38:39;;;;;;;37.60;21.30;;;;;;;;;;5047975;28;20440;-72
2023/01/26 11:41:24;;;;;;;35.88;20.13;;;;;;;;;;5044937;28;20033;-73
2023/01/26 11:43:56;;;;;;;37.90;20.75;;;;;;;;;;5046293;28;20059;-72
2023/01/26 11:46:25;;;;;;;38.78;21.63;;;;;;;;;;5049683;28;20037;-73
2023/01/26 11:49:10;;;;;;;37.63;19.88;;;;;;;;;;5048187;28;20480;-73
2023/01/26 11:51:48;;;;;;;38.78;21.77;;;;;;;;;;5043106;28;20061;-73
2023/01/26 11:54:24;;;;;;;38.00;20.38;;;;;;;;;;5050544;28;20096;-73
2023/01/26 11:57:04;;;;;;;38.58;20.98;;;;;;;;;;5046645;28;20450;-73
2023/01/26 11:59:38;;;;;;;31.80;18.63;;;;;;;;;;5045551;28;20083;-73
2023/01/26 12:02:14;;;;;;;37.10;19.83;;;;;;;;;;5042045;28;20044;-73
2023/01/26 12:04:44;;;;;;;36.20;21.13;;;;;;;;;;5046797;28;20062;-73
2023/01/26 12:07:17;;;;;;;40.00;18.35;;;;;;;;;;5047497;28;20087;-74
2023/01/26 12:09:47;;;;;;;35.17;19.92;;;;;;;;;;5043444;28;20595;-73
2023/01/26 12:12:16;;;;;;;38.45;21.63;;;;;;;;;;5046622;28;20033;-73
2023/01/26 12:14:43;;;;;;;37.88;18.58;;;;;;;;;;5040928;28;20394;-73
2023/01/26 12:17:15;;;;;;;38.50;20.48;;;;;;;;;;5046231;28;20037;-73
2023/01/26 12:19:45;;;;;;;35.72;20.00;;;;;;;;;;5043457;28;20033;-73
2023/01/26 12:22:14;;;;;;;35.40;20.08;;;;;;;;;;5044377;28;20120;-73
2023/01/26 12:24:42;;;;;;;37.42;20.15;;;;;;;;;;5042285;28;20056;-73
2023/01/26 12:27:15;;;;;;;34.42;18.15;;;;;;;;;;5043283;28;20123;-72
2023/01/26 12:30:00;;;;;;;40.92;22.52;;;;;;;;;;5048202;28;20029;-73
2023/01/26 12:32:26;;;;;;;43.13;24.27;;;;;;;;;;5044885;28;20500;-73
2023/01/26 12:34:52;;;;;;;36.47;21.05;;;;;;;;;;5045806;28;20478;-73
2023/01/26 12:37:28;;;;;;;37.33;20.15;;;;;;;;;;5042970;28;20049;-73
2023/01/26 12:39:58;;;;;;;31.95;17.08;;;;;;;;;;5044882;28;20029;-73
2023/01/26 12:42:24;;;;;;;36.88;19.85;;;;;;;;;;5026891;28;20033;-73
2023/01/26 12:44:54;;;;;;;36.33;22.30;;;;;;;;;;5043772;28;20033;-73
2023/01/26 12:47:20;;;;;;;37.60;21.50;;;;;;;;;;5045701;28;20462;-73
2023/01/26 12:49:58;;;;;;;33.70;20.77;;;;;;;;;;5044402;28;20112;-73
2023/01/26 12:52:27;;;;;;;40.17;18.65;;;;;;;;;;5045475;28;20722;-73
2023/01/26 12:55:15;;;;;;;37.85;20.20;;;;;;;;;;5048647;28;20116;-74
2023/01/26 12:57:48;;;;;;;37.63;19.98;;;;;;;;;;5043253;28;20043;-73
2023/01/26 13:00:20;;;;;;;41.80;21.65;;;;;;;;;;5048012;28;20124;-73
2023/01/26 13:02:47;;;;;;;45.47;25.33;;;;;;;;;;5046536;28;20059;-73
2023/01/26 13:05:43;;;;;;;38.58;19.40;;;;;;;;;;5044237;28;20493;-73
2023/01/26 13:08:27;;;;;;;36.05;19.35;;;;;;;;;;4971524;28;20086;-73
2023/01/26 13:10:53;;;;;;;33.60;18.13;;;;;;;;;;5048214;28;20080;-72
2023/01/26 13:13:30;;;;;;;31.33;17.45;;;;;;;;;;5043562;28;20557;-72
2023/01/26 13:16:15;;;;;;;29.17;16.25;;;;;;;;;;5040059;28;20704;-72
2023/01/26 13:18:48;;;;;;;30.88;18.83;;;;;;;;;;5044203;28;20037;-73
2023/01/26 13:21:26;;;;;;;31.65;18.30;;;;;;;;;;5046864;28;20486;-72
2023/01/26 13:23:52;;;;;;;30.40;17.42;;;;;;;;;;5045891;28;20770;-73
2023/01/26 13:26:18;;;;;;;33.33;18.67;;;;;;;;;;5043901;28;20817;-73
2023/01/26 13:28:44;;;;;;;36.95;20.52;;;;;;;;;;5044348;28;20526;-73
2023/01/26 13:31:11;;;;;;;33.33;17.88;;;;;;;;;;5043872;28;20108;-73
2023/01/26 13:33:37;;;;;;;32.53;18.45;;;;;;;;;;5045760;28;20025;-73
2023/01/26 13:36:05;;;;;;;38.45;20.90;;;;;;;;;;5044533;28;20040;-72
2023/01/26 13:38:42;;;;;;;34.63;18.77;;;;;;;;;;5043571;28;20068;-73
2023/01/26 13:41:19;;;;;;;37.92;20.10;;;;;;;;;;5020344;28;20072;-72
2023/01/26 13:43:54;;;;;;;35.78;19.05;;;;;;;;;;5043891;28;20649;-73
2023/01/26 13:46:23;;;;;;;32.50;19.70;;;;;;;;;;5044096;28;20060;-73
2023/01/26 13:48:49;;;;;;;32.20;18.77;;;;;;;;;;5044652;28;20035;-73
2023/01/26 13:51:20;;;;;;;36.28;19.92;;;;;;;;;;5044839;28;20033;-73
2023/01/26 13:53:58;;;;;;;35.70;19.65;;;;;;;;;;5044553;28;20063;-72
2023/01/26 13:56:26;;;;;;;31.50;16.98;;;;;;;;;;5042392;28;20386;-73
2023/01/26 13:58:52;;;;;;;34.78;18.15;;;;;;;;;;5046460;28;20439;-73
2023/01/26 14:01:18;;;;;;;32.25;17.10;;;;;;;;;;5044437;28;20436;-73
2023/01/26 14:03:44;;;;;;;31.55;17.02;;;;;;;;;;5044655;28;20025;-73
2023/01/26 14:06:15;;;;;;;32.50;18.25;;;;;;;;;;5043989;28;20556;-73
2023/01/26 14:08:45;;;;;;;32.33;17.33;;;;;;;;;;5042659;28;20037;-73
2023/01/26 14:11:16;;;;;;;35.20;19.13;;;;;;;;;;5024565;28;20056;-72
2023/01/26 14:13:43;;;;;;;30.30;16.52;;;;;;;;;;5049510;28;20674;-73
2023/01/26 14:16:19;;;;;;;30.15;17.60;;;;;;;;;;5048583;28;20470;-73
2023/01/26 14:18:47;;;;;;;31.27;18.13;;;;;;;;;;5043551;28;20045;-73
2023/01/26 14:21:20;;;;;;;32.28;18.52;;;;;;;;;;5022696;28;20644;-73
2023/01/26 14:23:53;;;;;;;32.80;18.50;;;;;;;;;;5045731;28;20077;-73
2023/01/26 14:26:20;;;;;;;35.88;18.83;;;;;;;;;;5039167;28;20139;-73
2023/01/26 14:28:46;;;;;;;31.98;17.30;;;;;;;;;;5039769;28;20029;-73
2023/01/26 14:31:16;;;;;;;36.70;19.80;;;;;;;;;;5043534;28;20037;-73
2023/01/26 14:33:42;;;;;;;39.70;20.27;;;;;;;;;;5028324;28;20033;-73
2023/01/26 14:36:18;;;;;;;38.17;22.08;;;;;;;;;;5038816;28;20041;-72
2023/01/26 14:38:46;;;;;;;41.20;22.75;;;;;;;;;;5049348;28;20049;-73
2023/01/26 14:41:30;;;;;;;47.83;23.88;;;;;;;;;;5048139;28;20064;-73
2023/01/26 14:43:57;;;;;;;41.95;21.77;;;;;;;;;;5030680;28;20044;-73
2023/01/26 14:46:30;;;;;;;65.35;32.25;;;;;;;;;;5047170;28;20032;-73
2023/01/26 14:49:06;;;;;;;94.10;46.95;;;;;;;;;;5050119;28;20025;-72
2023/01/26 14:51:32;;;;;;;47.00;24.33;;;;;;;;;;5043495;28;20070;-72
2023/01/26 14:54:00;;;;;;;57.70;30.55;;;;;;;;;;5046896;28;20035;-73
2023/01/26 14:56:32;;;;;;;48.97;29.35;;;;;;;;;;5048151;28;20033;-73
2023/01/26 14:58:58;;;;;;;50.58;28.20;;;;;;;;;;5048588;28;20646;-73
2023/01/26 15:01:25;;;;;;;43.88;23.90;;;;;;;;;;5045205;28;20033;-73
2023/01/26 15:03:57;;;;;;;43.13;21.55;;;;;;;;;;5043550;28;20033;-73
2023/01/26 15:06:27;;;;;;;41.60;23.10;;;;;;;;;;5048071;28;20065;-73
2023/01/26 15:08:59;;;;;;;36.47;21.48;;;;;;;;;;5045554;28;20035;-73
2023/01/26 15:14:24;;;;;;;40.83;21.98;;;;;;;;;;5044076;28;20541;-73
2023/01/26 15:16:52;;;;;;;52.95;29.05;;;;;;;;;;5044488;28;20129;-73
2023/01/26 15:19:23;;;;;;;61.97;33.15;;;;;;;;;;5048122;28;20391;-73